Linda — OJML — position and weather

sailwx.info

Track history (hours):
 
Tides and Currents Weather Stations Pressure Air Temp Water Temp Dewpoint Dewpoint Depression Visibility Wind Speed Wind Dir Waves Ship Positions

Linda

Last reported at 2016-Jun-29 23:33 UTC. Time now 2016-Jun-30 17:46 UTC.
Position N 59°31' E 022°36'.

Length 141 m; draft 7.1 m.

Type: Ship (hazmat cat A). MMSI: 230984000.

Date/timePositionNaut miles runAvg speedWind from/ knotsBaromVisibWave heightAir tempDewpointWater temp
2016-Jun-29 23:33N 59°31' E 022°36'1716.8
2016-Jun-29 22:33N 59°36' E 023°08'1716.7
2016-Jun-29 21:33N 59°42' E 023°39'1716.8
2016-Jun-29 20:33N 59°47' E 024°10'33 0.8
2016-Jun-28 04:33N 60°03' E 025°08'1515.3
2016-Jun-28 03:33N 59°56' E 025°35'1615.8
2016-Jun-28 02:33N 59°58' E 026°06'1716.5
2016-Jun-28 01:33N 60°01' E 026°39'4814.6
2016-Jun-27 22:16N 60°09' E 028°14'1115.8
2016-Jun-27 21:34N 60°03' E 028°33'3115.2
2016-Jun-27 19:30N 60°01' E 029°36'4 3.9
2016-Jun-27 18:33N 60°00' E 029°43'0 0.0
2016-Jun-27 17:33N 60°00' E 029°43'0 0.0
2016-Jun-27 16:27N 60°00' E 029°43'0 0.0
2016-Jun-27 15:33N 60°00' E 029°43'0 0.0
2016-Jun-27 14:33N 60°00' E 029°43'0 0.0
2016-Jun-27 13:33N 60°00' E 029°43'0 0.0
2016-Jun-27 12:18N 60°00' E 029°43'0 0.0
2016-Jun-27 11:33N 60°00' E 029°43'0 0.0
2016-Jun-27 10:33N 60°00' E 029°43'0 0.0
2016-Jun-27 09:33N 60°00' E 029°43'0 0.0
2016-Jun-27 08:33N 60°00' E 029°43'0 0.0
2016-Jun-27 07:33N 60°00' E 029°43'0 0.0
2016-Jun-27 06:33N 60°00' E 029°43'0 0.0
2016-Jun-27 05:33N 60°00' E 029°43'3 2.7
2016-Jun-27 04:33N 60°00' E 029°38'9 8.9
2016-Jun-27 03:31N 60°02' E 029°19'1010.0
2016-Jun-27 02:33N 60°02' E 028°60'1010.2
2016-Jun-27 01:34N 60°02' E 028°40'1010.0
2016-Jun-27 00:34N 60°05' E 028°20'1010.4
2016-Jun-26 23:34N 60°09' E 028°01'1110.8
2016-Jun-26 22:33N 60°09' E 027°39'1211.9
2016-Jun-26 21:33N 60°02' E 027°19'1311.4
2016-Jun-26 20:26N 59°58' E 026°54'1112.1
2016-Jun-26 19:32N 59°58' E 026°33'1712.6
2016-Jun-26 18:11N 59°54' E 026°00'1012.8
2016-Jun-26 17:24N 59°51' E 025°41'1112.6
2016-Jun-26 16:33N 59°49' E 025°20'1312.9
2016-Jun-26 15:33N 59°46' E 024°55'2913.6
2016-Jun-26 13:26N 59°39' E 023°60'1313.7
2016-Jun-26 12:28N 59°34' E 023°35'  
2016-Jun-24 07:33N 55°45' E 015°47'3511.8
2016-Jun-24 04:34N 55°27' E 014°53'1212.0
2016-Jun-24 03:34N 55°21' E 014°35'1211.8
2016-Jun-24 02:34N 55°12' E 014°21'1111.0
2016-Jun-24 01:34N 55°11' E 014°02'1211.6
2016-Jun-24 00:34N 55°12' E 013°42'1211.7
2016-Jun-23 23:33N 55°14' E 013°21'1111.3
2016-Jun-23 22:33N 55°15' E 013°01'1111.2
2016-Jun-23 21:34N 55°17' E 012°42'10 9.8
2016-Jun-23 20:33N 55°26' E 012°40'1010.5
2016-Jun-23 19:34N 55°37' E 012°42'1111.2
2016-Jun-23 18:33N 55°48' E 012°42'1212.2
2016-Jun-23 17:34N 56°00' E 012°40'1111.2
2016-Jun-23 16:34N 56°09' E 012°27'1312.5
2016-Jun-23 15:33N 56°16' E 012°08'3112.8
2016-Jun-23 13:07N 56°46' E 011°52'813.1
2016-Jun-23 12:32N 56°53' E 011°47'1312.7
2016-Jun-23 11:32N 57°05' E 011°39'1212.8
2016-Jun-23 10:34N 57°16' E 011°31'1312.9
2016-Jun-23 09:34N 57°28' E 011°22'1313.1
2016-Jun-23 08:34N 57°37' E 011°04'1313.2
2016-Jun-23 07:33N 57°46' E 010°46'3514.6
2016-Jun-23 05:11N 57°35' E 009°45'1015.0
2016-Jun-23 04:32N 57°30' E 009°30'1515.0
2016-Jun-23 03:33N 57°22' E 009°07'1515.0
2016-Jun-23 02:33N 57°13' E 008°44'1514.9
2016-Jun-23 01:32N 57°05' E 008°21'7514.6
2016-Jun-22 20:26N 56°01' E 007°10'1314.9
2016-Jun-22 19:32N 55°50' E 006°57'1414.8
2016-Jun-22 18:33N 55°37' E 006°44'1514.7
2016-Jun-22 17:33N 55°25' E 006°31'5914.8
2016-Jun-22 13:33N 54°34' E 005°37'1515.0
2016-Jun-22 12:34N 54°21' E 005°24'1515.1
2016-Jun-22 11:34N 54°08' E 005°11'1515.2
2016-Jun-22 10:34N 53°54' E 005°01'1515.4
2016-Jun-22 09:34N 53°40' E 004°52'1615.7
2016-Jun-22 08:32N 53°25' E 004°43'3316.5
2016-Jun-22 06:33N 52°56' E 004°17'1917.2
2016-Jun-22 05:28N 52°39' E 004°02'1416.0
2016-Jun-22 04:33N 52°26' E 003°53'1615.6
2016-Jun-22 03:34N 52°11' E 003°54'1313.2
2016-Jun-22 02:33N 51°59' E 004°05'1211.7
2016-Jun-22 01:33N 51°54' E 004°22'2 2.3
2016-Jun-22 00:33N 51°53' E 004°25'0 0.0
2016-Jun-21 23:33N 51°53' E 004°25'0 0.0
2016-Jun-21 22:33N 51°53' E 004°25'0 0.0
2016-Jun-21 21:33N 51°53' E 004°25'0 0.0
2016-Jun-21 20:33N 51°53' E 004°25'0 0.0
2016-Jun-21 19:33N 51°53' E 004°25'0 0.0
2016-Jun-21 18:33N 51°53' E 004°25'0 0.0
2016-Jun-21 17:33N 51°53' E 004°25'0 0.0
2016-Jun-21 16:33N 51°53' E 004°25'0 0.0
2016-Jun-21 15:33N 51°53' E 004°25'0 0.0
2016-Jun-21 14:33N 51°53' E 004°25'0 0.0
2016-Jun-21 13:33N 51°53' E 004°25'0 0.0
2016-Jun-21 12:33N 51°53' E 004°25'0 0.0
2016-Jun-21 11:33N 51°53' E 004°25'0 0.0
2016-Jun-21 10:33N 51°53' E 004°25'0 0.0
2016-Jun-21 09:33N 51°53' E 004°25'0 0.0
2016-Jun-21 08:33N 51°53' E 004°25'0 0.0
2016-Jun-21 07:33N 51°53' E 004°25'0 0.0
2016-Jun-21 06:33N 51°53' E 004°25'17 8.5
2016-Jun-21 04:34N 51°60' E 004°00'1212.2
2016-Jun-21 03:33N 52°03' E 003°41'1615.5
2016-Jun-21 02:33N 52°12' E 003°19'1616.1
2016-Jun-21 01:33N 52°22' E 002°59'3517.4
2016-Jun-20 23:32N 52°44' E 002°15'1717.9
2016-Jun-20 22:34N 52°56' E 001°53'1818.3
2016-Jun-20 21:34N 53°08' E 001°30'1818.3
2016-Jun-20 20:33N 53°21' E 001°09'4217.9
2016-Jun-20 18:13N 53°55' E 000°26'1218.6
2016-Jun-20 17:34N 54°04' E 000°12'1919.4
2016-Jun-20 16:34N 54°18' W 000°11'2019.5
2016-Jun-20 15:32N 54°32' W 000°35'1211.2
2016-Jun-20 14:29N 54°37' W 000°53'9 0.9
2016-Jun-20 04:19N 54°37' W 001°09'911.2
2016-Jun-20 03:33N 54°44' W 000°60'1010.3
2016-Jun-20 02:33N 54°48' W 000°43'1010.6
2016-Jun-20 01:34N 54°53' W 000°27'1211.1
2016-Jun-20 00:30N 54°58' W 000°09'  
Track history (hours):
 
Tides and Currents Weather Stations Pressure Air Temp Water Temp Dewpoint Dewpoint Depression Visibility Wind Speed Wind Dir Waves Ship Positions

Linda

Last reported at 2016-Jun-29 23:33 UTC. Time now 2016-Jun-30 17:46 UTC.
Position N 59°31' E 022°36'.

Length 141 m; draft 7.1 m.

Type: Ship (hazmat cat A). MMSI: 230984000.

Date/timePositionNaut miles runAvg speedWind from/ knotsBaromVisibWave heightAir tempDewpointWater temp
2016-Jun-29 23:33N 59°31' E 022°36'1716.8
2016-Jun-29 22:33N 59°36' E 023°08'1716.7
2016-Jun-29 21:33N 59°42' E 023°39'1716.8
2016-Jun-29 20:33N 59°47' E 024°10'33 0.8
2016-Jun-28 04:33N 60°03' E 025°08'1515.3
2016-Jun-28 03:33N 59°56' E 025°35'1615.8
2016-Jun-28 02:33N 59°58' E 026°06'1716.5
2016-Jun-28 01:33N 60°01' E 026°39'4814.6
2016-Jun-27 22:16N 60°09' E 028°14'1115.8
2016-Jun-27 21:34N 60°03' E 028°33'3115.2
2016-Jun-27 19:30N 60°01' E 029°36'4 3.9
2016-Jun-27 18:33N 60°00' E 029°43'0 0.0
2016-Jun-27 17:33N 60°00' E 029°43'0 0.0
2016-Jun-27 16:27N 60°00' E 029°43'0 0.0
2016-Jun-27 15:33N 60°00' E 029°43'0 0.0
2016-Jun-27 14:33N 60°00' E 029°43'0 0.0
2016-Jun-27 13:33N 60°00' E 029°43'0 0.0
2016-Jun-27 12:18N 60°00' E 029°43'0 0.0
2016-Jun-27 11:33N 60°00' E 029°43'0 0.0
2016-Jun-27 10:33N 60°00' E 029°43'0 0.0
2016-Jun-27 09:33N 60°00' E 029°43'0 0.0
2016-Jun-27 08:33N 60°00' E 029°43'0 0.0
2016-Jun-27 07:33N 60°00' E 029°43'0 0.0
2016-Jun-27 06:33N 60°00' E 029°43'0 0.0
2016-Jun-27 05:33N 60°00' E 029°43'3 2.7
2016-Jun-27 04:33N 60°00' E 029°38'9 8.9
2016-Jun-27 03:31N 60°02' E 029°19'1010.0
2016-Jun-27 02:33N 60°02' E 028°60'1010.2
2016-Jun-27 01:34N 60°02' E 028°40'1010.0
2016-Jun-27 00:34N 60°05' E 028°20'1010.4
2016-Jun-26 23:34N 60°09' E 028°01'1110.8
2016-Jun-26 22:33N 60°09' E 027°39'1211.9
2016-Jun-26 21:33N 60°02' E 027°19'1311.4
2016-Jun-26 20:26N 59°58' E 026°54'1112.1
2016-Jun-26 19:32N 59°58' E 026°33'1712.6
2016-Jun-26 18:11N 59°54' E 026°00'1012.8
2016-Jun-26 17:24N 59°51' E 025°41'1112.6
2016-Jun-26 16:33N 59°49' E 025°20'1312.9
2016-Jun-26 15:33N 59°46' E 024°55'2913.6
2016-Jun-26 13:26N 59°39' E 023°60'1313.7
2016-Jun-26 12:28N 59°34' E 023°35'  
2016-Jun-24 07:33N 55°45' E 015°47'3511.8
2016-Jun-24 04:34N 55°27' E 014°53'1212.0
2016-Jun-24 03:34N 55°21' E 014°35'1211.8
2016-Jun-24 02:34N 55°12' E 014°21'1111.0
2016-Jun-24 01:34N 55°11' E 014°02'1211.6
2016-Jun-24 00:34N 55°12' E 013°42'1211.7
2016-Jun-23 23:33N 55°14' E 013°21'1111.3
2016-Jun-23 22:33N 55°15' E 013°01'1111.2
2016-Jun-23 21:34N 55°17' E 012°42'10 9.8
2016-Jun-23 20:33N 55°26' E 012°40'1010.5
2016-Jun-23 19:34N 55°37' E 012°42'1111.2
2016-Jun-23 18:33N 55°48' E 012°42'1212.2
2016-Jun-23 17:34N 56°00' E 012°40'1111.2
2016-Jun-23 16:34N 56°09' E 012°27'1312.5
2016-Jun-23 15:33N 56°16' E 012°08'3112.8
2016-Jun-23 13:07N 56°46' E 011°52'813.1
2016-Jun-23 12:32N 56°53' E 011°47'1312.7
2016-Jun-23 11:32N 57°05' E 011°39'1212.8
2016-Jun-23 10:34N 57°16' E 011°31'1312.9
2016-Jun-23 09:34N 57°28' E 011°22'1313.1
2016-Jun-23 08:34N 57°37' E 011°04'1313.2
2016-Jun-23 07:33N 57°46' E 010°46'3514.6
2016-Jun-23 05:11N 57°35' E 009°45'1015.0
2016-Jun-23 04:32N 57°30' E 009°30'1515.0
2016-Jun-23 03:33N 57°22' E 009°07'1515.0
2016-Jun-23 02:33N 57°13' E 008°44'1514.9
2016-Jun-23 01:32N 57°05' E 008°21'7514.6
2016-Jun-22 20:26N 56°01' E 007°10'1314.9
2016-Jun-22 19:32N 55°50' E 006°57'1414.8
2016-Jun-22 18:33N 55°37' E 006°44'1514.7
2016-Jun-22 17:33N 55°25' E 006°31'5914.8
2016-Jun-22 13:33N 54°34' E 005°37'1515.0
2016-Jun-22 12:34N 54°21' E 005°24'1515.1
2016-Jun-22 11:34N 54°08' E 005°11'1515.2
2016-Jun-22 10:34N 53°54' E 005°01'1515.4
2016-Jun-22 09:34N 53°40' E 004°52'1615.7
2016-Jun-22 08:32N 53°25' E 004°43'3316.5
2016-Jun-22 06:33N 52°56' E 004°17'1917.2
2016-Jun-22 05:28N 52°39' E 004°02'1416.0
2016-Jun-22 04:33N 52°26' E 003°53'1615.6
2016-Jun-22 03:34N 52°11' E 003°54'1313.2
2016-Jun-22 02:33N 51°59' E 004°05'1211.7
2016-Jun-22 01:33N 51°54' E 004°22'2 2.3
2016-Jun-22 00:33N 51°53' E 004°25'0 0.0
2016-Jun-21 23:33N 51°53' E 004°25'0 0.0
2016-Jun-21 22:33N 51°53' E 004°25'0 0.0
2016-Jun-21 21:33N 51°53' E 004°25'0 0.0
2016-Jun-21 20:33N 51°53' E 004°25'0 0.0
2016-Jun-21 19:33N 51°53' E 004°25'0 0.0
2016-Jun-21 18:33N 51°53' E 004°25'0 0.0
2016-Jun-21 17:33N 51°53' E 004°25'0 0.0
2016-Jun-21 16:33N 51°53' E 004°25'0 0.0
2016-Jun-21 15:33N 51°53' E 004°25'0 0.0
2016-Jun-21 14:33N 51°53' E 004°25'0 0.0
2016-Jun-21 13:33N 51°53' E 004°25'0 0.0
2016-Jun-21 12:33N 51°53' E 004°25'0 0.0
2016-Jun-21 11:33N 51°53' E 004°25'0 0.0
2016-Jun-21 10:33N 51°53' E 004°25'0 0.0
2016-Jun-21 09:33N 51°53' E 004°25'0 0.0
2016-Jun-21 08:33N 51°53' E 004°25'0 0.0
2016-Jun-21 07:33N 51°53' E 004°25'0 0.0
2016-Jun-21 06:33N 51°53' E 004°25'17 8.5
2016-Jun-21 04:34N 51°60' E 004°00'1212.2
2016-Jun-21 03:33N 52°03' E 003°41'1615.5
2016-Jun-21 02:33N 52°12' E 003°19'1616.1
2016-Jun-21 01:33N 52°22' E 002°59'3517.4
2016-Jun-20 23:32N 52°44' E 002°15'1717.9
2016-Jun-20 22:34N 52°56' E 001°53'1818.3
2016-Jun-20 21:34N 53°08' E 001°30'1818.3
2016-Jun-20 20:33N 53°21' E 001°09'4217.9
2016-Jun-20 18:13N 53°55' E 000°26'1218.6
2016-Jun-20 17:34N 54°04' E 000°12'1919.4
2016-Jun-20 16:34N 54°18' W 000°11'2019.5
2016-Jun-20 15:32N 54°32' W 000°35'1211.2
2016-Jun-20 14:29N 54°37' W 000°53'9 0.9
2016-Jun-20 04:19N 54°37' W 001°09'911.2
2016-Jun-20 03:33N 54°44' W 000°60'1010.3
2016-Jun-20 02:33N 54°48' W 000°43'1010.6
2016-Jun-20 01:34N 54°53' W 000°27'1211.1
2016-Jun-20 00:30N 54°58' W 000°09'  

Dump ship's entire track history